METAR Data
IDs: Format: Raw Decoded Include TAF

Data at: 1332 UTC 16 Aug 2022

Region: TOP
KATL 161326Z 06008KT 10SM BKN012 BKN200 BKN250 24/20 A2994 RMK AO2 T02390200

KBOS 161254Z 04009KT 10SM FEW060 FEW120 FEW250 23/15 A3005 RMK AO2 SLP177 T02330150

KBWI 161254Z 06007KT 10SM FEW002 FEW090 BKN160 BKN240 22/16 A2999 RMK AO2 SLP154 T02220156

KCLE 161251Z 10009KT 10SM SCT038 BKN050 19/16 A3003 RMK AO2 SLP181 T01940156 $

KCLT 161325Z 02006KT 2 1/2SM BR BKN003 OVC007 20/19 A2996 RMK DZE11 P0001 T02000189

KCVG 161252Z 03007KT 10SM FEW250 20/17 A3002 RMK AO2 SLP156 T02000167

KDCA 161252Z 07006KT 10SM SCT130 SCT250 22/17 A3000 RMK AO2 SLP158 T02220167

KDEN 161253Z 29008KT 10SM FEW015 BKN060 BKN095 18/16 A3022 RMK AO2 SLP168 T01780156

KDFW 161253Z 21007KT 10SM BKN250 28/20 A2994 RMK AO2 SLP127 T02830200

KDTW 161253Z 04008KT 10SM FEW200 21/15 A3008 RMK AO2 SLP181 T02110150

KEWR 161251Z 01006KT 10SM FEW035 FEW200 BKN250 23/13 A3003 RMK AO2 SLP169 T02330133

KFLL 161253Z 00000KT 10SM FEW025 FEW250 29/23 A2994 RMK AO2 SLP139 T02890233

KIAD 161252Z 06006KT 10SM SCT050 BKN100 23/18 A3000 RMK AO2 SLP158 T02280178

KIAH 161253Z 00000KT 10SM FEW020 BKN250 26/24 A2995 RMK AO2 SLP140 T02560244

KJFK 161251Z 04011KT 10SM FEW038 BKN250 23/14 A3003 RMK AO2 SLP169 T02330144

KLAS 161256Z 30005KT 10SM FEW120 SCT160 28/15 A2990 RMK AO2 SLP096 T02780150

KLAX 161253Z 29006KT 10SM FEW002 FEW200 20/17 A2981 RMK AO2 SLP093 T02000167

KLGA 161251Z 04007KT 10SM FEW045 BKN250 22/14 A3003 RMK AO2 SLP168 T02170144

KMCO 161253Z 23005KT 10SM FEW012 FEW280 27/24 A2993 RMK AO2 SLP132 T02720239

KMDW 161253Z 09007KT 10SM FEW250 23/16 A3010 RMK AO2 SLP183 T02330156

KMEM 161254Z 01008KT 10SM OVC060 23/19 A2999 RMK AO2 SLP152 T02330194

KMIA 161253Z 00000KT 10SM FEW025 FEW250 29/24 A2996 RMK AO2 SLP144 T02940244

KMSP 161253Z 13003KT 10SM FEW100 FEW150 SCT250 20/17 A3017 RMK AO2 SLP212 T02000172

KORD 161251Z 02006KT 10SM FEW250 21/17 A3010 RMK AO2 SLP191 T02060167

KPDX 161253Z 33005KT 10SM BKN009 18/15 A3006 RMK AO2 SLP176 T01780150

KPHL 161254Z 05010KT 10SM FEW190 BKN250 23/16 A3001 RMK AO2 SLP160 T02280161

KPHX 161251Z 00000KT 10SM SCT110 SCT130 30/19 A2978 RMK AO2 SLP064 T03000189

KPIT 161251Z 09007KT 10SM SCT055 BKN100 18/14 A3003 RMK AO2 SLP170 T01830144 $

KSAN 161312Z 33003KT 7SM FEW006 FEW012 21/19 A2980 RMK AO2 T02060189

KSEA 161329Z 22005KT 10SM BKN002 15/14 A3009 RMK AO2 T01500139

KSFO 161256Z 30008KT 10SM FEW007 14/11 A2980 RMK AO2 SLP090 T01390111

KSLC 161254Z 16007KT 10SM FEW110 FEW200 23/11 A3006 RMK AO2 SLP116 T02280111

KSTL 161251Z 01005KT 5SM -RA BR FEW005 SCT070 OVC100 21/19 A3007 RMK AO2 SLP172 P0001 T02060189

KTPA 161253Z 19004KT 10SM FEW020 FEW250 29/25 A2993 RMK AO2 SLP135 CB DSNT W T02940250